sensor_id;sensor_type;location;lat;lon;timestamp;P1;durP1;ratioP1;P2;durP2;ratioP2
75021;SDS011;63583;49.976;20.182;2024-03-23T00:51:56;16.25;;;9.40;;
75021;SDS011;63583;49.976;20.182;2024-03-23T00:54:22;16.42;;;8.95;;
75021;SDS011;63583;49.976;20.182;2024-03-23T00:56:48;13.63;;;8.70;;
75021;SDS011;63583;49.976;20.182;2024-03-23T00:59:13;17.92;;;9.40;;
75021;SDS011;63583;49.976;20.182;2024-03-23T01:01:39;15.20;;;9.02;;
75021;SDS011;63583;49.976;20.182;2024-03-23T01:04:05;15.80;;;8.20;;
75021;SDS011;63583;49.976;20.182;2024-03-23T01:06:31;16.83;;;8.07;;
75021;SDS011;63583;49.976;20.182;2024-03-23T01:08:56;14.35;;;8.45;;
75021;SDS011;63583;49.976;20.182;2024-03-23T01:11:22;13.32;;;8.02;;
75021;SDS011;63583;49.976;20.182;2024-03-23T01:13:48;14.85;;;8.40;;
75021;SDS011;63583;49.976;20.182;2024-03-23T01:16:14;14.02;;;7.30;;
75021;SDS011;63583;49.976;20.182;2024-03-23T01:18:39;11.75;;;7.40;;
75021;SDS011;63583;49.976;20.182;2024-03-23T01:21:05;11.40;;;7.55;;
75021;SDS011;63583;49.976;20.182;2024-03-23T01:23:31;11.77;;;6.85;;
75021;SDS011;63583;49.976;20.182;2024-03-23T01:25:57;13.80;;;7.57;;
75021;SDS011;63583;49.976;20.182;2024-03-23T01:28:22;13.85;;;6.70;;
75021;SDS011;63583;49.976;20.182;2024-03-23T01:30:49;13.60;;;7.68;;
75021;SDS011;63583;49.976;20.182;2024-03-23T01:33:15;13.45;;;8.18;;
75021;SDS011;63583;49.976;20.182;2024-03-23T01:35:41;14.00;;;7.40;;
75021;SDS011;63583;49.976;20.182;2024-03-23T01:38:06;14.18;;;7.50;;
75021;SDS011;63583;49.976;20.182;2024-03-23T01:40:32;13.50;;;7.60;;
75021;SDS011;63583;49.976;20.182;2024-03-23T01:42:58;15.27;;;8.38;;
75021;SDS011;63583;49.976;20.182;2024-03-23T01:45:29;12.23;;;7.15;;
75021;SDS011;63583;49.976;20.182;2024-03-23T01:47:56;14.63;;;7.60;;
75021;SDS011;63583;49.976;20.182;2024-03-23T01:50:22;12.35;;;7.55;;
75021;SDS011;63583;49.976;20.182;2024-03-23T01:52:49;13.07;;;7.38;;
75021;SDS011;63583;49.976;20.182;2024-03-23T01:55:15;12.10;;;7.15;;
75021;SDS011;63583;49.976;20.182;2024-03-23T01:57:41;11.63;;;6.78;;
75021;SDS011;63583;49.976;20.182;2024-03-23T02:00:07;13.90;;;7.72;;
75021;SDS011;63583;49.976;20.182;2024-03-23T02:02:35;12.75;;;7.00;;
75021;SDS011;63583;49.976;20.182;2024-03-23T02:05:01;13.20;;;7.68;;
75021;SDS011;63583;49.976;20.182;2024-03-23T02:07:27;15.50;;;7.38;;
75021;SDS011;63583;49.976;20.182;2024-03-23T02:09:53;13.68;;;7.80;;
75021;SDS011;63583;49.976;20.182;2024-03-23T02:12:19;13.30;;;7.60;;
75021;SDS011;63583;49.976;20.182;2024-03-23T02:14:46;11.82;;;7.45;;
75021;SDS011;63583;49.976;20.182;2024-03-23T02:17:12;16.17;;;7.25;;
75021;SDS011;63583;49.976;20.182;2024-03-23T02:19:38;12.27;;;7.40;;
75021;SDS011;63583;49.976;20.182;2024-03-23T02:22:04;11.52;;;6.25;;
75021;SDS011;63583;49.976;20.182;2024-03-23T02:24:30;13.52;;;7.22;;
75021;SDS011;63583;49.976;20.182;2024-03-23T02:26:55;12.20;;;7.93;;
75021;SDS011;63583;49.976;20.182;2024-03-23T02:29:21;12.25;;;6.57;;
75021;SDS011;63583;49.976;20.182;2024-03-23T02:31:47;13.38;;;7.07;;
75021;SDS011;63583;49.976;20.182;2024-03-23T02:34:13;13.00;;;6.93;;
75021;SDS011;63583;49.976;20.182;2024-03-23T02:36:39;12.50;;;7.15;;
75021;SDS011;63583;49.976;20.182;2024-03-23T02:39:04;10.75;;;6.22;;
75021;SDS011;63583;49.976;20.182;2024-03-23T02:41:30;10.90;;;6.20;;
75021;SDS011;63583;49.976;20.182;2024-03-23T02:43:56;10.88;;;6.82;;
75021;SDS011;63583;49.976;20.182;2024-03-23T02:46:22;11.48;;;7.20;;
75021;SDS011;63583;49.976;20.182;2024-03-23T02:48:51;12.65;;;6.93;;
75021;SDS011;63583;49.976;20.182;2024-03-23T02:51:16;10.65;;;6.70;;
75021;SDS011;63583;49.976;20.182;2024-03-23T02:53:42;13.57;;;6.72;;
75021;SDS011;63583;49.976;20.182;2024-03-23T02:56:08;11.93;;;6.25;;
75021;SDS011;63583;49.976;20.182;2024-03-23T02:58:34;10.93;;;6.20;;
75021;SDS011;63583;49.976;20.182;2024-03-23T03:01:00;10.02;;;6.25;;
75021;SDS011;63583;49.976;20.182;2024-03-23T03:03:25;9.68;;;5.63;;
75021;SDS011;63583;49.976;20.182;2024-03-23T03:05:55;11.30;;;6.05;;
75021;SDS011;63583;49.976;20.182;2024-03-23T03:08:21;10.77;;;6.00;;
75021;SDS011;63583;49.976;20.182;2024-03-23T03:10:47;9.75;;;5.85;;
75021;SDS011;63583;49.976;20.182;2024-03-23T03:13:13;10.82;;;6.25;;
75021;SDS011;63583;49.976;20.182;2024-03-23T03:15:40;11.10;;;6.50;;
75021;SDS011;63583;49.976;20.182;2024-03-23T03:18:06;11.48;;;6.78;;
75021;SDS011;63583;49.976;20.182;2024-03-23T03:20:32;12.15;;;6.57;;
75021;SDS011;63583;49.976;20.182;2024-03-23T03:22:58;12.75;;;6.22;;
75021;SDS011;63583;49.976;20.182;2024-03-23T03:25:24;11.52;;;6.22;;
75021;SDS011;63583;49.976;20.182;2024-03-23T03:27:50;10.20;;;6.45;;
75021;SDS011;63583;49.976;20.182;2024-03-23T03:30:15;13.30;;;7.25;;
75021;SDS011;63583;49.976;20.182;2024-03-23T03:32:42;13.45;;;7.40;;
75021;SDS011;63583;49.976;20.182;2024-03-23T03:35:08;13.88;;;7.28;;
75021;SDS011;63583;49.976;20.182;2024-03-23T03:37:34;14.68;;;7.95;;
75021;SDS011;63583;49.976;20.182;2024-03-23T03:39:59;14.35;;;8.27;;
75021;SDS011;63583;49.976;20.182;2024-03-23T03:42:25;14.82;;;8.25;;
75021;SDS011;63583;49.976;20.182;2024-03-23T03:44:51;15.27;;;8.48;;
75021;SDS011;63583;49.976;20.182;2024-03-23T03:47:19;25.98;;;12.60;;
75021;SDS011;63583;49.976;20.182;2024-03-23T03:49:45;21.38;;;10.10;;
75021;SDS011;63583;49.976;20.182;2024-03-23T03:52:10;28.50;;;13.75;;
75021;SDS011;63583;49.976;20.182;2024-03-23T03:54:36;53.03;;;22.48;;
75021;SDS011;63583;49.976;20.182;2024-03-23T03:57:02;39.70;;;16.60;;
75021;SDS011;63583;49.976;20.182;2024-03-23T03:59:29;41.25;;;19.15;;
75021;SDS011;63583;49.976;20.182;2024-03-23T04:01:55;31.20;;;14.02;;
75021;SDS011;63583;49.976;20.182;2024-03-23T04:04:20;30.45;;;16.85;;
75021;SDS011;63583;49.976;20.182;2024-03-23T04:06:48;28.60;;;15.02;;
75021;SDS011;63583;49.976;20.182;2024-03-23T04:09:13;25.48;;;14.30;;
75021;SDS011;63583;49.976;20.182;2024-03-23T04:11:40;21.50;;;11.45;;
75021;SDS011;63583;49.976;20.182;2024-03-23T04:14:06;23.90;;;12.85;;
75021;SDS011;63583;49.976;20.182;2024-03-23T04:16:35;31.00;;;16.00;;
75021;SDS011;63583;49.976;20.182;2024-03-23T04:19:01;24.15;;;12.63;;
75021;SDS011;63583;49.976;20.182;2024-03-23T04:21:27;21.90;;;10.75;;
75021;SDS011;63583;49.976;20.182;2024-03-23T04:23:52;16.83;;;8.57;;
75021;SDS011;63583;49.976;20.182;2024-03-23T04:26:18;18.08;;;8.63;;
75021;SDS011;63583;49.976;20.182;2024-03-23T04:28:44;15.63;;;7.55;;
75021;SDS011;63583;49.976;20.182;2024-03-23T04:31:10;12.40;;;7.30;;
75021;SDS011;63583;49.976;20.182;2024-03-23T04:33:35;14.35;;;7.13;;
75021;SDS011;63583;49.976;20.182;2024-03-23T04:36:01;14.07;;;7.70;;
75021;SDS011;63583;49.976;20.182;2024-03-23T04:38:28;15.63;;;8.45;;
75021;SDS011;63583;49.976;20.182;2024-03-23T04:40:57;15.85;;;9.35;;
75021;SDS011;63583;49.976;20.182;2024-03-23T04:43:25;17.95;;;9.15;;
75021;SDS011;63583;49.976;20.182;2024-03-23T04:45:52;15.65;;;8.57;;
75021;SDS011;63583;49.976;20.182;2024-03-23T04:48:21;14.80;;;8.43;;
75021;SDS011;63583;49.976;20.182;2024-03-23T04:50:54;17.20;;;8.73;;
75021;SDS011;63583;49.976;20.182;2024-03-23T04:53:20;16.25;;;9.45;;
75021;SDS011;63583;49.976;20.182;2024-03-23T04:55:46;16.73;;;9.48;;
75021;SDS011;63583;49.976;20.182;2024-03-23T04:58:12;16.92;;;8.70;;
75021;SDS011;63583;49.976;20.182;2024-03-23T05:00:38;16.50;;;8.27;;
75021;SDS011;63583;49.976;20.182;2024-03-23T05:03:04;15.32;;;8.38;;
75021;SDS011;63583;49.976;20.182;2024-03-23T05:05:30;12.70;;;7.90;;
75021;SDS011;63583;49.976;20.182;2024-03-23T05:07:55;13.82;;;7.90;;
75021;SDS011;63583;49.976;20.182;2024-03-23T05:10:21;13.30;;;7.70;;
75021;SDS011;63583;49.976;20.182;2024-03-23T05:12:47;10.65;;;6.65;;
75021;SDS011;63583;49.976;20.182;2024-03-23T05:15:13;10.38;;;5.68;;
75021;SDS011;63583;49.976;20.182;2024-03-23T05:17:39;11.43;;;5.80;;
75021;SDS011;63583;49.976;20.182;2024-03-23T05:20:05;10.23;;;5.50;;
75021;SDS011;63583;49.976;20.182;2024-03-23T05:22:38;9.90;;;5.88;;
75021;SDS011;63583;49.976;20.182;2024-03-23T05:25:04;11.48;;;6.25;;
75021;SDS011;63583;49.976;20.182;2024-03-23T05:27:33;9.95;;;5.93;;
75021;SDS011;63583;49.976;20.182;2024-03-23T05:29:59;9.68;;;5.82;;
75021;SDS011;63583;49.976;20.182;2024-03-23T05:32:25;9.00;;;5.28;;
75021;SDS011;63583;49.976;20.182;2024-03-23T05:34:51;10.10;;;5.97;;
75021;SDS011;63583;49.976;20.182;2024-03-23T05:37:21;11.32;;;6.03;;
75021;SDS011;63583;49.976;20.182;2024-03-23T05:39:50;11.32;;;6.13;;
75021;SDS011;63583;49.976;20.182;2024-03-23T05:42:18;10.20;;;5.20;;
75021;SDS011;63583;49.976;20.182;2024-03-23T05:44:45;9.88;;;5.82;;
75021;SDS011;63583;49.976;20.182;2024-03-23T05:47:11;10.43;;;5.72;;
75021;SDS011;63583;49.976;20.182;2024-03-23T05:49:42;10.68;;;5.65;;
75021;SDS011;63583;49.976;20.182;2024-03-23T05:52:08;10.13;;;5.70;;
75021;SDS011;63583;49.976;20.182;2024-03-23T05:54:35;9.35;;;5.40;;
75021;SDS011;63583;49.976;20.182;2024-03-23T05:57:01;9.90;;;5.57;;
75021;SDS011;63583;49.976;20.182;2024-03-23T05:59:28;9.35;;;5.85;;
75021;SDS011;63583;49.976;20.182;2024-03-23T06:01:54;11.35;;;6.30;;
75021;SDS011;63583;49.976;20.182;2024-03-23T06:04:20;11.02;;;6.50;;
75021;SDS011;63583;49.976;20.182;2024-03-23T06:06:46;9.05;;;5.68;;
75021;SDS011;63583;49.976;20.182;2024-03-23T06:09:12;10.30;;;6.35;;
75021;SDS011;63583;49.976;20.182;2024-03-23T06:11:38;13.13;;;7.45;;
75021;SDS011;63583;49.976;20.182;2024-03-23T06:14:04;12.02;;;6.57;;
75021;SDS011;63583;49.976;20.182;2024-03-23T06:16:30;12.27;;;6.95;;
75021;SDS011;63583;49.976;20.182;2024-03-23T06:18:56;11.75;;;6.43;;
75021;SDS011;63583;49.976;20.182;2024-03-23T06:21:22;10.27;;;6.00;;
75021;SDS011;63583;49.976;20.182;2024-03-23T06:23:51;11.20;;;6.80;;
75021;SDS011;63583;49.976;20.182;2024-03-23T06:26:18;9.45;;;6.25;;
75021;SDS011;63583;49.976;20.182;2024-03-23T06:28:45;9.63;;;6.32;;
75021;SDS011;63583;49.976;20.182;2024-03-23T06:31:11;9.48;;;5.80;;
75021;SDS011;63583;49.976;20.182;2024-03-23T06:33:37;11.07;;;6.35;;
75021;SDS011;63583;49.976;20.182;2024-03-23T06:36:04;11.52;;;6.78;;
75021;SDS011;63583;49.976;20.182;2024-03-23T06:38:30;11.07;;;6.95;;
75021;SDS011;63583;49.976;20.182;2024-03-23T06:40:56;10.90;;;7.38;;
75021;SDS011;63583;49.976;20.182;2024-03-23T06:43:22;11.70;;;6.75;;
75021;SDS011;63583;49.976;20.182;2024-03-23T06:45:54;14.27;;;7.30;;
75021;SDS011;63583;49.976;20.182;2024-03-23T06:48:20;11.10;;;6.55;;
75021;SDS011;63583;49.976;20.182;2024-03-23T06:50:46;12.57;;;6.63;;
75021;SDS011;63583;49.976;20.182;2024-03-23T06:53:13;15.07;;;7.15;;
75021;SDS011;63583;49.976;20.182;2024-03-23T06:55:39;14.55;;;7.22;;
75021;SDS011;63583;49.976;20.182;2024-03-23T06:58:05;13.80;;;6.80;;
75021;SDS011;63583;49.976;20.182;2024-03-23T07:00:31;15.02;;;7.43;;
75021;SDS011;63583;49.976;20.182;2024-03-23T07:03:01;12.00;;;6.88;;
75021;SDS011;63583;49.976;20.182;2024-03-23T07:05:29;12.05;;;7.25;;
75021;SDS011;63583;49.976;20.182;2024-03-23T07:07:55;14.20;;;7.38;;
75021;SDS011;63583;49.976;20.182;2024-03-23T07:10:20;11.20;;;6.72;;
75021;SDS011;63583;49.976;20.182;2024-03-23T07:12:46;11.68;;;6.32;;
75021;SDS011;63583;49.976;20.182;2024-03-23T07:15:12;12.77;;;6.53;;
75021;SDS011;63583;49.976;20.182;2024-03-23T07:17:38;10.85;;;6.18;;
75021;SDS011;63583;49.976;20.182;2024-03-23T07:20:03;10.68;;;6.30;;
75021;SDS011;63583;49.976;20.182;2024-03-23T07:22:30;13.50;;;6.68;;
75021;SDS011;63583;49.976;20.182;2024-03-23T07:24:57;14.52;;;7.80;;
75021;SDS011;63583;49.976;20.182;2024-03-23T07:27:25;14.32;;;7.90;;
75021;SDS011;63583;49.976;20.182;2024-03-23T07:29:51;14.48;;;8.25;;
75021;SDS011;63583;49.976;20.182;2024-03-23T07:32:17;14.85;;;7.85;;
75021;SDS011;63583;49.976;20.182;2024-03-23T07:34:42;13.27;;;8.32;;
75021;SDS011;63583;49.976;20.182;2024-03-23T07:37:10;10.65;;;6.68;;
75021;SDS011;63583;49.976;20.182;2024-03-23T07:39:36;9.43;;;6.53;;
75021;SDS011;63583;49.976;20.182;2024-03-23T07:42:02;11.85;;;6.75;;
75021;SDS011;63583;49.976;20.182;2024-03-23T07:44:28;11.85;;;6.95;;
75021;SDS011;63583;49.976;20.182;2024-03-23T07:46:54;12.40;;;7.20;;
75021;SDS011;63583;49.976;20.182;2024-03-23T07:49:19;12.77;;;7.10;;
75021;SDS011;63583;49.976;20.182;2024-03-23T07:51:45;12.13;;;6.80;;
75021;SDS011;63583;49.976;20.182;2024-03-23T07:54:11;10.30;;;7.03;;
75021;SDS011;63583;49.976;20.182;2024-03-23T07:56:37;12.88;;;6.60;;
75021;SDS011;63583;49.976;20.182;2024-03-23T07:59:02;9.98;;;6.90;;
75021;SDS011;63583;49.976;20.182;2024-03-23T08:01:31;10.82;;;6.78;;
75021;SDS011;63583;49.976;20.182;2024-03-23T08:03:57;11.60;;;6.85;;
75021;SDS011;63583;49.976;20.182;2024-03-23T08:06:23;13.93;;;7.28;;
75021;SDS011;63583;49.976;20.182;2024-03-23T08:08:51;13.95;;;7.63;;
75021;SDS011;63583;49.976;20.182;2024-03-23T08:11:28;13.10;;;7.40;;
75021;SDS011;63583;49.976;20.182;2024-03-23T08:13:55;13.75;;;7.30;;
75021;SDS011;63583;49.976;20.182;2024-03-23T08:16:22;12.20;;;7.60;;
75021;SDS011;63583;49.976;20.182;2024-03-23T08:18:48;12.00;;;7.20;;
75021;SDS011;63583;49.976;20.182;2024-03-23T08:21:14;12.32;;;7.00;;
75021;SDS011;63583;49.976;20.182;2024-03-23T08:23:39;14.13;;;7.15;;
75021;SDS011;63583;49.976;20.182;2024-03-23T08:26:06;14.23;;;7.78;;
75021;SDS011;63583;49.976;20.182;2024-03-23T08:28:35;12.00;;;7.03;;
75021;SDS011;63583;49.976;20.182;2024-03-23T08:31:02;11.65;;;7.25;;
75021;SDS011;63583;49.976;20.182;2024-03-23T08:33:30;15.32;;;8.93;;
75021;SDS011;63583;49.976;20.182;2024-03-23T08:36:00;16.63;;;9.38;;
75021;SDS011;63583;49.976;20.182;2024-03-23T08:38:27;19.08;;;10.93;;
75021;SDS011;63583;49.976;20.182;2024-03-23T08:41:03;21.70;;;12.02;;
75021;SDS011;63583;49.976;20.182;2024-03-23T08:43:37;19.65;;;11.50;;
75021;SDS011;63583;49.976;20.182;2024-03-23T08:46:08;18.98;;;10.63;;
75021;SDS011;63583;49.976;20.182;2024-03-23T08:48:35;14.95;;;9.13;;
75021;SDS011;63583;49.976;20.182;2024-03-23T08:53:28;11.43;;;6.45;;
75021;SDS011;63583;49.976;20.182;2024-03-23T08:55:56;10.95;;;6.20;;
75021;SDS011;63583;49.976;20.182;2024-03-23T08:58:23;9.85;;;5.72;;
75021;SDS011;63583;49.976;20.182;2024-03-23T09:00:52;14.68;;;6.53;;
75021;SDS011;63583;49.976;20.182;2024-03-23T09:03:24;9.98;;;6.35;;
75021;SDS011;63583;49.976;20.182;2024-03-23T09:05:50;10.07;;;6.10;;
75021;SDS011;63583;49.976;20.182;2024-03-23T09:08:17;10.75;;;6.40;;
75021;SDS011;63583;49.976;20.182;2024-03-23T09:10:43;10.10;;;6.32;;
75021;SDS011;63583;49.976;20.182;2024-03-23T09:13:09;10.02;;;5.75;;
75021;SDS011;63583;49.976;20.182;2024-03-23T09:15:36;9.77;;;5.80;;
75021;SDS011;63583;49.976;20.182;2024-03-23T09:18:03;8.88;;;5.80;;
75021;SDS011;63583;49.976;20.182;2024-03-23T09:20:33;8.35;;;5.40;;
75021;SDS011;63583;49.976;20.182;2024-03-23T09:22:59;10.35;;;5.65;;
75021;SDS011;63583;49.976;20.182;2024-03-23T09:25:25;8.55;;;5.45;;
75021;SDS011;63583;49.976;20.182;2024-03-23T09:27:50;9.52;;;5.82;;
75021;SDS011;63583;49.976;20.182;2024-03-23T09:30:17;10.25;;;5.60;;
75021;SDS011;63583;49.976;20.182;2024-03-23T09:32:45;9.73;;;5.25;;
75021;SDS011;63583;49.976;20.182;2024-03-23T09:35:11;9.50;;;5.13;;
75021;SDS011;63583;49.976;20.182;2024-03-23T09:37:40;11.20;;;5.43;;
75021;SDS011;63583;49.976;20.182;2024-03-23T09:40:11;8.80;;;5.80;;
75021;SDS011;63583;49.976;20.182;2024-03-23T09:42:36;14.20;;;6.40;;
75021;SDS011;63583;49.976;20.182;2024-03-23T09:45:06;13.32;;;6.30;;
75021;SDS011;63583;49.976;20.182;2024-03-23T09:47:43;13.50;;;6.88;;
75021;SDS011;63583;49.976;20.182;2024-03-23T09:50:10;10.95;;;5.40;;
75021;SDS011;63583;49.976;20.182;2024-03-23T09:52:35;8.93;;;5.65;;
75021;SDS011;63583;49.976;20.182;2024-03-23T09:55:01;9.25;;;5.20;;
75021;SDS011;63583;49.976;20.182;2024-03-23T09:57:29;7.65;;;4.35;;
75021;SDS011;63583;49.976;20.182;2024-03-23T09:59:55;8.80;;;6.07;;
75021;SDS011;63583;49.976;20.182;2024-03-23T10:02:22;11.23;;;6.05;;
75021;SDS011;63583;49.976;20.182;2024-03-23T10:04:49;10.85;;;6.32;;
75021;SDS011;63583;49.976;20.182;2024-03-23T10:07:18;9.60;;;6.18;;
75021;SDS011;63583;49.976;20.182;2024-03-23T10:09:45;8.73;;;5.78;;
75021;SDS011;63583;49.976;20.182;2024-03-23T10:12:17;9.00;;;5.60;;
75021;SDS011;63583;49.976;20.182;2024-03-23T10:14:44;8.05;;;5.43;;
75021;SDS011;63583;49.976;20.182;2024-03-23T10:17:17;10.57;;;5.90;;
75021;SDS011;63583;49.976;20.182;2024-03-23T10:19:46;8.75;;;5.30;;
75021;SDS011;63583;49.976;20.182;2024-03-23T10:22:21;6.25;;;4.18;;
75021;SDS011;63583;49.976;20.182;2024-03-23T10:24:49;9.40;;;4.60;;
75021;SDS011;63583;49.976;20.182;2024-03-23T10:27:15;6.00;;;3.53;;
75021;SDS011;63583;49.976;20.182;2024-03-23T10:29:43;6.22;;;4.15;;
75021;SDS011;63583;49.976;20.182;2024-03-23T10:32:10;4.68;;;3.35;;
75021;SDS011;63583;49.976;20.182;2024-03-23T10:34:37;4.95;;;3.00;;
75021;SDS011;63583;49.976;20.182;2024-03-23T10:37:03;6.32;;;2.92;;
75021;SDS011;63583;49.976;20.182;2024-03-23T10:39:34;5.95;;;3.10;;
75021;SDS011;63583;49.976;20.182;2024-03-23T10:42:08;5.35;;;2.75;;
75021;SDS011;63583;49.976;20.182;2024-03-23T10:44:38;5.47;;;3.00;;
75021;SDS011;63583;49.976;20.182;2024-03-23T10:47:04;5.72;;;2.67;;
75021;SDS011;63583;49.976;20.182;2024-03-23T10:49:31;7.00;;;3.50;;
75021;SDS011;63583;49.976;20.182;2024-03-23T10:52:04;4.78;;;2.70;;
75021;SDS011;63583;49.976;20.182;2024-03-23T10:54:31;5.00;;;3.10;;
75021;SDS011;63583;49.976;20.182;2024-03-23T10:57:14;4.90;;;2.97;;
75021;SDS011;63583;49.976;20.182;2024-03-23T11:00:05;7.18;;;3.30;;
75021;SDS011;63583;49.976;20.182;2024-03-23T11:02:32;4.25;;;2.90;;
75021;SDS011;63583;49.976;20.182;2024-03-23T11:04:58;5.35;;;3.20;;
75021;SDS011;63583;49.976;20.182;2024-03-23T11:09:59;6.18;;;2.95;;
75021;SDS011;63583;49.976;20.182;2024-03-23T11:12:28;4.72;;;3.05;;
75021;SDS011;63583;49.976;20.182;2024-03-23T11:14:58;4.35;;;2.90;;
75021;SDS011;63583;49.976;20.182;2024-03-23T11:17:26;6.18;;;2.80;;
75021;SDS011;63583;49.976;20.182;2024-03-23T11:19:59;4.72;;;2.75;;
75021;SDS011;63583;49.976;20.182;2024-03-23T11:25:18;5.88;;;2.95;;
75021;SDS011;63583;49.976;20.182;2024-03-23T11:27:46;5.78;;;2.95;;
75021;SDS011;63583;49.976;20.182;2024-03-23T11:30:14;5.95;;;3.50;;
75021;SDS011;63583;49.976;20.182;2024-03-23T11:32:45;4.72;;;3.20;;
75021;SDS011;63583;49.976;20.182;2024-03-23T11:40:36;4.57;;;2.92;;
75021;SDS011;63583;49.976;20.182;2024-03-23T11:43:06;5.50;;;2.85;;
75021;SDS011;63583;49.976;20.182;2024-03-23T11:45:52;4.10;;;2.75;;
75021;SDS011;63583;49.976;20.182;2024-03-23T11:48:21;4.30;;;2.80;;
75021;SDS011;63583;49.976;20.182;2024-03-23T11:50:55;4.97;;;2.95;;
75021;SDS011;63583;49.976;20.182;2024-03-23T11:53:25;4.35;;;2.83;;
75021;SDS011;63583;49.976;20.182;2024-03-23T11:55:58;4.40;;;2.83;;
75021;SDS011;63583;49.976;20.182;2024-03-23T11:58:26;3.90;;;2.45;;
75021;SDS011;63583;49.976;20.182;2024-03-23T12:00:55;4.88;;;3.08;;
75021;SDS011;63583;49.976;20.182;2024-03-23T12:03:21;4.60;;;2.50;;
75021;SDS011;63583;49.976;20.182;2024-03-23T12:05:51;5.30;;;4.00;;
75021;SDS011;63583;49.976;20.182;2024-03-23T12:08:20;6.63;;;3.70;;
75021;SDS011;63583;49.976;20.182;2024-03-23T12:11:06;3.58;;;2.63;;
75021;SDS011;63583;49.976;20.182;2024-03-23T12:13:40;4.53;;;2.83;;
75021;SDS011;63583;49.976;20.182;2024-03-23T12:16:17;4.05;;;2.60;;
75021;SDS011;63583;49.976;20.182;2024-03-23T12:18:49;4.40;;;2.78;;
75021;SDS011;63583;49.976;20.182;2024-03-23T12:21:16;5.38;;;2.63;;
75021;SDS011;63583;49.976;20.182;2024-03-23T12:23:42;6.57;;;3.40;;
75021;SDS011;63583;49.976;20.182;2024-03-23T12:26:10;4.55;;;2.72;;
75021;SDS011;63583;49.976;20.182;2024-03-23T12:28:37;5.32;;;3.53;;
75021;SDS011;63583;49.976;20.182;2024-03-23T12:31:03;4.32;;;2.85;;
75021;SDS011;63583;49.976;20.182;2024-03-23T12:33:29;4.47;;;3.17;;
75021;SDS011;63583;49.976;20.182;2024-03-23T12:35:55;5.75;;;3.05;;
75021;SDS011;63583;49.976;20.182;2024-03-23T12:38:39;4.75;;;3.05;;
75021;SDS011;63583;49.976;20.182;2024-03-23T12:41:11;4.90;;;2.90;;
75021;SDS011;63583;49.976;20.182;2024-03-23T12:43:36;5.00;;;2.70;;
75021;SDS011;63583;49.976;20.182;2024-03-23T12:46:03;3.95;;;2.70;;
75021;SDS011;63583;49.976;20.182;2024-03-23T12:48:28;5.70;;;3.53;;
75021;SDS011;63583;49.976;20.182;2024-03-23T12:50:54;5.20;;;3.05;;
75021;SDS011;63583;49.976;20.182;2024-03-23T12:53:20;4.25;;;2.67;;
75021;SDS011;63583;49.976;20.182;2024-03-23T12:55:46;5.95;;;2.78;;
75021;SDS011;63583;49.976;20.182;2024-03-23T12:58:11;4.47;;;2.83;;
75021;SDS011;63583;49.976;20.182;2024-03-23T13:00:37;4.13;;;2.38;;
75021;SDS011;63583;49.976;20.182;2024-03-23T13:03:03;4.65;;;2.55;;
75021;SDS011;63583;49.976;20.182;2024-03-23T13:05:30;7.30;;;2.88;;
75021;SDS011;63583;49.976;20.182;2024-03-23T13:07:55;4.85;;;2.42;;
75021;SDS011;63583;49.976;20.182;2024-03-23T13:10:22;3.78;;;2.70;;
75021;SDS011;63583;49.976;20.182;2024-03-23T13:12:47;4.47;;;2.63;;
75021;SDS011;63583;49.976;20.182;2024-03-23T13:15:13;3.88;;;2.60;;
75021;SDS011;63583;49.976;20.182;2024-03-23T13:17:42;3.63;;;2.63;;
75021;SDS011;63583;49.976;20.182;2024-03-23T13:20:08;8.60;;;2.97;;
75021;SDS011;63583;49.976;20.182;2024-03-23T13:22:38;5.32;;;2.70;;
75021;SDS011;63583;49.976;20.182;2024-03-23T13:25:04;4.72;;;2.80;;
75021;SDS011;63583;49.976;20.182;2024-03-23T13:27:30;6.53;;;2.65;;
75021;SDS011;63583;49.976;20.182;2024-03-23T13:29:56;6.18;;;2.90;;
75021;SDS011;63583;49.976;20.182;2024-03-23T13:32:22;4.07;;;2.70;;
75021;SDS011;63583;49.976;20.182;2024-03-23T13:34:49;4.10;;;2.65;;
75021;SDS011;63583;49.976;20.182;2024-03-23T13:37:15;4.15;;;2.45;;
75021;SDS011;63583;49.976;20.182;2024-03-23T13:39:41;5.38;;;2.60;;
75021;SDS011;63583;49.976;20.182;2024-03-23T13:42:07;3.92;;;2.40;;
75021;SDS011;63583;49.976;20.182;2024-03-23T13:44:34;6.18;;;2.95;;
75021;SDS011;63583;49.976;20.182;2024-03-23T13:47:01;6.25;;;2.55;;
75021;SDS011;63583;49.976;20.182;2024-03-23T13:49:29;4.38;;;2.72;;
75021;SDS011;63583;49.976;20.182;2024-03-23T13:51:59;5.93;;;2.53;;
75021;SDS011;63583;49.976;20.182;2024-03-23T13:54:26;4.68;;;2.55;;
75021;SDS011;63583;49.976;20.182;2024-03-23T13:56:52;3.92;;;2.47;;
75021;SDS011;63583;49.976;20.182;2024-03-23T13:59:20;4.70;;;3.00;;
75021;SDS011;63583;49.976;20.182;2024-03-23T14:01:46;5.13;;;2.60;;
75021;SDS011;63583;49.976;20.182;2024-03-23T14:04:13;4.00;;;2.58;;
75021;SDS011;63583;49.976;20.182;2024-03-23T14:06:39;4.55;;;2.78;;
75021;SDS011;63583;49.976;20.182;2024-03-23T14:09:05;5.72;;;2.65;;
75021;SDS011;63583;49.976;20.182;2024-03-23T14:11:34;4.28;;;2.70;;
75021;SDS011;63583;49.976;20.182;2024-03-23T14:14:03;6.03;;;3.05;;
75021;SDS011;63583;49.976;20.182;2024-03-23T14:16:29;4.38;;;2.50;;
75021;SDS011;63583;49.976;20.182;2024-03-23T14:18:56;6.18;;;3.15;;
75021;SDS011;63583;49.976;20.182;2024-03-23T14:21:21;4.32;;;2.75;;
75021;SDS011;63583;49.976;20.182;2024-03-23T14:23:48;9.52;;;3.80;;
75021;SDS011;63583;49.976;20.182;2024-03-23T14:26:13;3.95;;;2.50;;
75021;SDS011;63583;49.976;20.182;2024-03-23T14:28:39;4.78;;;2.80;;
75021;SDS011;63583;49.976;20.182;2024-03-23T14:31:06;4.93;;;2.60;;
75021;SDS011;63583;49.976;20.182;2024-03-23T14:33:36;5.00;;;2.63;;
75021;SDS011;63583;49.976;20.182;2024-03-23T14:36:03;4.90;;;2.47;;
75021;SDS011;63583;49.976;20.182;2024-03-23T14:38:29;5.72;;;2.40;;
75021;SDS011;63583;49.976;20.182;2024-03-23T14:41:01;6.82;;;2.78;;
75021;SDS011;63583;49.976;20.182;2024-03-23T14:43:29;5.90;;;2.45;;
75021;SDS011;63583;49.976;20.182;2024-03-23T14:48:40;4.32;;;2.58;;
75021;SDS011;63583;49.976;20.182;2024-03-23T14:51:08;5.65;;;2.78;;
75021;SDS011;63583;49.976;20.182;2024-03-23T15:06:22;4.55;;;1.52;;
75021;SDS011;63583;49.976;20.182;2024-03-23T15:08:48;4.85;;;1.85;;
75021;SDS011;63583;49.976;20.182;2024-03-23T15:11:14;3.08;;;1.48;;
75021;SDS011;63583;49.976;20.182;2024-03-23T15:13:40;3.70;;;1.40;;
75021;SDS011;63583;49.976;20.182;2024-03-23T15:16:06;4.50;;;1.42;;
75021;SDS011;63583;49.976;20.182;2024-03-23T15:18:35;2.42;;;1.17;;
75021;SDS011;63583;49.976;20.182;2024-03-23T15:21:03;1.58;;;0.80;;
75021;SDS011;63583;49.976;20.182;2024-03-23T15:23:33;2.42;;;1.23;;
75021;SDS011;63583;49.976;20.182;2024-03-23T15:25:59;2.70;;;1.27;;
75021;SDS011;63583;49.976;20.182;2024-03-23T15:28:26;2.20;;;1.30;;
75021;SDS011;63583;49.976;20.182;2024-03-23T15:31:03;2.17;;;1.02;;
75021;SDS011;63583;49.976;20.182;2024-03-23T15:33:32;2.15;;;1.23;;
75021;SDS011;63583;49.976;20.182;2024-03-23T15:36:07;2.10;;;1.15;;
75021;SDS011;63583;49.976;20.182;2024-03-23T15:40:59;1.95;;;1.00;;
75021;SDS011;63583;49.976;20.182;2024-03-23T15:43:25;2.55;;;0.75;;
75021;SDS011;63583;49.976;20.182;2024-03-23T15:45:58;2.35;;;1.20;;
75021;SDS011;63583;49.976;20.182;2024-03-23T15:48:26;2.95;;;1.02;;